sensor_id;sensor_type;location;lat;lon;timestamp;pressure;altitude;pressure_sealevel;temperature;humidity
13348;BME280;6743;49.934;9.138;2023-04-04T00:01:26;101609.16;;;2.13;100.00
13348;BME280;6743;49.934;9.138;2023-04-04T00:03:52;101601.44;;;2.10;100.00
13348;BME280;6743;49.934;9.138;2023-04-04T00:06:18;101607.78;;;2.06;100.00
13348;BME280;6743;49.934;9.138;2023-04-04T00:08:44;101605.22;;;2.04;100.00
13348;BME280;6743;49.934;9.138;2023-04-04T00:11:11;101597.44;;;2.03;100.00
13348;BME280;6743;49.934;9.138;2023-04-04T00:13:38;101602.97;;;1.96;100.00
13348;BME280;6743;49.934;9.138;2023-04-04T00:16:05;101597.16;;;1.91;100.00
13348;BME280;6743;49.934;9.138;2023-04-04T00:18:31;101597.06;;;1.93;100.00
13348;BME280;6743;49.934;9.138;2023-04-04T00:20:57;101600.59;;;1.92;100.00
13348;BME280;6743;49.934;9.138;2023-04-04T00:23:23;101606.69;;;1.92;100.00
13348;BME280;6743;49.934;9.138;2023-04-04T00:25:49;101596.28;;;1.91;100.00
13348;BME280;6743;49.934;9.138;2023-04-04T00:28:17;101595.50;;;1.89;100.00
13348;BME280;6743;49.934;9.138;2023-04-04T00:30:43;101596.37;;;1.89;100.00
13348;BME280;6743;49.934;9.138;2023-04-04T00:33:09;101594.00;;;1.85;100.00
13348;BME280;6743;49.934;9.138;2023-04-04T00:35:35;101598.19;;;1.87;100.00
13348;BME280;6743;49.934;9.138;2023-04-04T00:38:01;101596.37;;;1.89;100.00
13348;BME280;6743;49.934;9.138;2023-04-04T00:40:27;101586.06;;;1.86;100.00
13348;BME280;6743;49.934;9.138;2023-04-04T00:42:53;101586.06;;;1.86;100.00
13348;BME280;6743;49.934;9.138;2023-04-04T00:45:20;101591.38;;;1.85;100.00
13348;BME280;6743;49.934;9.138;2023-04-04T00:47:48;101558.97;;;1.70;100.00
13348;BME280;6743;49.934;9.138;2023-04-04T00:50:15;101576.59;;;1.84;100.00
13348;BME280;6743;49.934;9.138;2023-04-04T00:52:42;101576.72;;;1.81;100.00
13348;BME280;6743;49.934;9.138;2023-04-04T00:55:08;101577.75;;;1.78;100.00
13348;BME280;6743;49.934;9.138;2023-04-04T00:57:34;101574.50;;;1.73;100.00
13348;BME280;6743;49.934;9.138;2023-04-04T01:00:02;101581.66;;;1.70;100.00
13348;BME280;6743;49.934;9.138;2023-04-04T01:02:29;101573.88;;;1.68;100.00
13348;BME280;6743;49.934;9.138;2023-04-04T01:04:56;101579.19;;;1.67;100.00
13348;BME280;6743;49.934;9.138;2023-04-04T01:07:22;101575.03;;;1.63;100.00
13348;BME280;6743;49.934;9.138;2023-04-04T01:09:49;101577.09;;;1.56;100.00
13348;BME280;6743;49.934;9.138;2023-04-04T01:12:15;101568.09;;;1.44;100.00
13348;BME280;6743;49.934;9.138;2023-04-04T01:14:41;101572.31;;;1.47;100.00
13348;BME280;6743;49.934;9.138;2023-04-04T01:17:07;101570.56;;;1.47;100.00
13348;BME280;6743;49.934;9.138;2023-04-04T01:19:36;101568.72;;;1.49;100.00
13348;BME280;6743;49.934;9.138;2023-04-04T01:22:03;101572.31;;;1.47;100.00
13348;BME280;6743;49.934;9.138;2023-04-04T01:24:32;101566.25;;;1.46;100.00
13348;BME280;6743;49.934;9.138;2023-04-04T01:26:58;101562.50;;;1.52;100.00
13348;BME280;6743;49.934;9.138;2023-04-04T01:29:26;101564.34;;;1.50;100.00
13348;BME280;6743;49.934;9.138;2023-04-04T01:31:56;101561.84;;;1.47;100.00
13348;BME280;6743;49.934;9.138;2023-04-04T01:34:28;101551.69;;;1.41;100.00
13348;BME280;6743;49.934;9.138;2023-04-04T01:37:02;101560.62;;;1.37;100.00
13348;BME280;6743;49.934;9.138;2023-04-04T01:39:33;101555.84;;;1.28;100.00
13348;BME280;6743;49.934;9.138;2023-04-04T01:42:01;101557.22;;;1.17;100.00
13348;BME280;6743;49.934;9.138;2023-04-04T01:44:28;101560.94;;;1.12;100.00
13348;BME280;6743;49.934;9.138;2023-04-04T01:47:05;101556.06;;;1.04;100.00
13348;BME280;6743;49.934;9.138;2023-04-04T01:49:32;101556.22;;;1.01;100.00
13348;BME280;6743;49.934;9.138;2023-04-04T01:51:58;101553.75;;;0.98;100.00
13348;BME280;6743;49.934;9.138;2023-04-04T01:54:24;101551.22;;;0.97;100.00
13348;BME280;6743;49.934;9.138;2023-04-04T01:56:52;101542.59;;;0.95;100.00
13348;BME280;6743;49.934;9.138;2023-04-04T01:59:19;101547.22;;;0.90;100.00
13348;BME280;6743;49.934;9.138;2023-04-04T02:01:45;101550.94;;;0.84;100.00
13348;BME280;6743;49.934;9.138;2023-04-04T02:04:11;101551.78;;;0.85;100.00
13348;BME280;6743;49.934;9.138;2023-04-04T02:06:37;101554.56;;;0.82;100.00
13348;BME280;6743;49.934;9.138;2023-04-04T02:09:03;101552.00;;;0.80;100.00
13348;BME280;6743;49.934;9.138;2023-04-04T02:11:29;101555.69;;;0.76;100.00
13348;BME280;6743;49.934;9.138;2023-04-04T02:13:55;101558.50;;;0.71;100.00
13348;BME280;6743;49.934;9.138;2023-04-04T02:16:22;101555.87;;;0.71;100.00
13348;BME280;6743;49.934;9.138;2023-04-04T02:18:48;101560.19;;;0.72;100.00
13348;BME280;6743;49.934;9.138;2023-04-04T02:21:14;101558.72;;;0.67;100.00
13348;BME280;6743;49.934;9.138;2023-04-04T02:23:41;101563.22;;;0.63;100.00
13348;BME280;6743;49.934;9.138;2023-04-04T02:26:07;101563.31;;;0.62;100.00
13348;BME280;6743;49.934;9.138;2023-04-04T02:28:33;101566.72;;;0.62;100.00
13348;BME280;6743;49.934;9.138;2023-04-04T02:30:59;101559.06;;;0.59;100.00
13348;BME280;6743;49.934;9.138;2023-04-04T02:33:27;101557.41;;;0.57;100.00
13348;BME280;6743;49.934;9.138;2023-04-04T02:35:55;101560.03;;;0.57;100.00
13348;BME280;6743;49.934;9.138;2023-04-04T02:38:21;101549.06;;;0.49;100.00
13348;BME280;6743;49.934;9.138;2023-04-04T02:40:47;101550.78;;;0.50;100.00
13348;BME280;6743;49.934;9.138;2023-04-04T02:43:13;101549.94;;;0.49;100.00
13348;BME280;6743;49.934;9.138;2023-04-04T02:45:42;101545.72;;;0.47;100.00
13348;BME280;6743;49.934;9.138;2023-04-04T02:48:08;101540.50;;;0.47;100.00
13348;BME280;6743;49.934;9.138;2023-04-04T02:50:35;101532.78;;;0.44;100.00
13348;BME280;6743;49.934;9.138;2023-04-04T02:53:03;101535.31;;;0.45;100.00
13348;BME280;6743;49.934;9.138;2023-04-04T02:55:32;101543.28;;;0.42;100.00
13348;BME280;6743;49.934;9.138;2023-04-04T02:57:57;101540.84;;;0.39;100.00
13348;BME280;6743;49.934;9.138;2023-04-04T03:00:26;101540.88;;;0.37;100.00
13348;BME280;6743;49.934;9.138;2023-04-04T03:02:52;101545.31;;;0.35;100.00
13348;BME280;6743;49.934;9.138;2023-04-04T03:05:18;101541.87;;;0.35;100.00
13348;BME280;6743;49.934;9.138;2023-04-04T03:07:45;101542.81;;;0.34;100.00
13348;BME280;6743;49.934;9.138;2023-04-04T03:10:11;101534.87;;;0.35;100.00
13348;BME280;6743;49.934;9.138;2023-04-04T03:12:37;101534.97;;;0.34;100.00
13348;BME280;6743;49.934;9.138;2023-04-04T03:15:04;101530.72;;;0.31;100.00
13348;BME280;6743;49.934;9.138;2023-04-04T03:17:31;101529.03;;;0.30;100.00
13348;BME280;6743;49.934;9.138;2023-04-04T03:19:57;101520.41;;;0.28;100.00
13348;BME280;6743;49.934;9.138;2023-04-04T03:22:23;101517.81;;;0.28;100.00
13348;BME280;6743;49.934;9.138;2023-04-04T03:24:50;101520.41;;;0.28;100.00
13348;BME280;6743;49.934;9.138;2023-04-04T03:27:16;101517.81;;;0.28;100.00
13348;BME280;6743;49.934;9.138;2023-04-04T03:29:42;101518.81;;;0.26;100.00
13348;BME280;6743;49.934;9.138;2023-04-04T03:32:08;101511.94;;;0.23;100.00
13348;BME280;6743;49.934;9.138;2023-04-04T03:34:34;101509.41;;;0.22;100.00
13348;BME280;6743;49.934;9.138;2023-04-04T03:37:00;101511.25;;;0.20;100.00
13348;BME280;6743;49.934;9.138;2023-04-04T03:39:26;101505.19;;;0.19;100.00
13348;BME280;6743;49.934;9.138;2023-04-04T03:41:54;101483.56;;;0.16;100.00
13348;BME280;6743;49.934;9.138;2023-04-04T03:44:20;101505.88;;;0.23;100.00
13348;BME280;6743;49.934;9.138;2023-04-04T03:46:46;101503.44;;;0.20;100.00
13348;BME280;6743;49.934;9.138;2023-04-04T03:49:12;101495.59;;;0.20;100.00
13348;BME280;6743;49.934;9.138;2023-04-04T03:51:38;101502.41;;;0.22;100.00
13348;BME280;6743;49.934;9.138;2023-04-04T03:54:04;101500.72;;;0.21;100.00
13348;BME280;6743;49.934;9.138;2023-04-04T03:56:30;101494.66;;;0.21;100.00
13348;BME280;6743;49.934;9.138;2023-04-04T03:58:57;101494.06;;;0.14;100.00
13348;BME280;6743;49.934;9.138;2023-04-04T04:01:23;101498.53;;;0.12;100.00
13348;BME280;6743;49.934;9.138;2023-04-04T04:03:49;101503.09;;;0.07;100.00
13348;BME280;6743;49.934;9.138;2023-04-04T04:06:15;101499.72;;;0.05;100.00
13348;BME280;6743;49.934;9.138;2023-04-04T04:08:41;101494.78;;;-0.01;100.00
13348;BME280;6743;49.934;9.138;2023-04-04T04:11:08;101503.38;;;0.01;100.00
13348;BME280;6743;49.934;9.138;2023-04-04T04:13:34;101504.37;;;-0.02;100.00
13348;BME280;6743;49.934;9.138;2023-04-04T04:16:02;101502.66;;;-0.03;100.00
13348;BME280;6743;49.934;9.138;2023-04-04T04:18:28;101502.72;;;-0.04;100.00
13348;BME280;6743;49.934;9.138;2023-04-04T04:20:56;101498.41;;;-0.05;100.00
13348;BME280;6743;49.934;9.138;2023-04-04T04:23:22;101504.63;;;-0.08;100.00
13348;BME280;6743;49.934;9.138;2023-04-04T04:25:48;101504.63;;;-0.08;100.00
13348;BME280;6743;49.934;9.138;2023-04-04T04:28:14;101504.69;;;-0.09;100.00
13348;BME280;6743;49.934;9.138;2023-04-04T04:30:40;101508.22;;;-0.10;100.00
13348;BME280;6743;49.934;9.138;2023-04-04T04:33:07;101506.56;;;-0.13;100.00
13348;BME280;6743;49.934;9.138;2023-04-04T04:35:35;101498.91;;;-0.16;100.00
13348;BME280;6743;49.934;9.138;2023-04-04T04:38:01;101510.28;;;-0.18;100.00
13348;BME280;6743;49.934;9.138;2023-04-04T04:40:27;101505.28;;;-0.23;100.00
13348;BME280;6743;49.934;9.138;2023-04-04T04:42:53;101508.81;;;-0.24;100.00
13348;BME280;6743;49.934;9.138;2023-04-04T04:45:19;101501.84;;;-0.23;100.00
13348;BME280;6743;49.934;9.138;2023-04-04T04:47:45;101499.16;;;-0.22;100.00
13348;BME280;6743;49.934;9.138;2023-04-04T04:50:14;101493.22;;;-0.25;100.00
13348;BME280;6743;49.934;9.138;2023-04-04T04:52:41;101507.91;;;-0.23;100.00
13348;BME280;6743;49.934;9.138;2023-04-04T04:55:07;101507.97;;;-0.24;100.00
13348;BME280;6743;49.934;9.138;2023-04-04T04:57:33;101502.81;;;-0.26;100.00
13348;BME280;6743;49.934;9.138;2023-04-04T04:59:59;101507.16;;;-0.26;100.00
13348;BME280;6743;49.934;9.138;2023-04-04T05:02:25;101510.50;;;-0.23;100.00
13348;BME280;6743;49.934;9.138;2023-04-04T05:04:52;101504.28;;;-0.20;100.00
13348;BME280;6743;49.934;9.138;2023-04-04T05:07:19;101502.53;;;-0.20;100.00
13348;BME280;6743;49.934;9.138;2023-04-04T05:09:44;101512.13;;;-0.20;100.00
13348;BME280;6743;49.934;9.138;2023-04-04T05:12:10;101514.66;;;-0.19;100.00
13348;BME280;6743;49.934;9.138;2023-04-04T05:14:37;101512.00;;;-0.17;100.00
13348;BME280;6743;49.934;9.138;2023-04-04T05:17:03;101513.75;;;-0.18;100.00
13348;BME280;6743;49.934;9.138;2023-04-04T05:19:28;101511.22;;;-0.19;100.00
13348;BME280;6743;49.934;9.138;2023-04-04T05:21:55;101516.62;;;-0.24;100.00
13348;BME280;6743;49.934;9.138;2023-04-04T05:24:22;101515.56;;;-0.20;100.00
13348;BME280;6743;49.934;9.138;2023-04-04T05:26:47;101521.06;;;-0.26;100.00
13348;BME280;6743;49.934;9.138;2023-04-04T05:29:13;101517.53;;;-0.25;100.00
13348;BME280;6743;49.934;9.138;2023-04-04T05:31:39;101522.81;;;-0.26;100.00
13348;BME280;6743;49.934;9.138;2023-04-04T05:34:06;101486.19;;;-0.44;100.00
13348;BME280;6743;49.934;9.138;2023-04-04T05:36:33;101516.75;;;-0.27;100.00
13348;BME280;6743;49.934;9.138;2023-04-04T05:38:59;101524.72;;;-0.30;100.00
13348;BME280;6743;49.934;9.138;2023-04-04T05:41:26;101530.84;;;-0.31;100.00
13348;BME280;6743;49.934;9.138;2023-04-04T05:43:52;101503.44;;;-0.41;100.00
13348;BME280;6743;49.934;9.138;2023-04-04T05:46:18;101531.81;;;-0.33;100.00
13348;BME280;6743;49.934;9.138;2023-04-04T05:48:44;101521.47;;;-0.35;100.00
13348;BME280;6743;49.934;9.138;2023-04-04T05:51:10;101513.75;;;-0.38;100.00
13348;BME280;6743;49.934;9.138;2023-04-04T05:53:36;101517.81;;;-0.31;100.00
13348;BME280;6743;49.934;9.138;2023-04-04T05:56:03;101517.00;;;-0.33;100.00
13348;BME280;6743;49.934;9.138;2023-04-04T05:58:29;101528.94;;;-0.27;100.00
13348;BME280;6743;49.934;9.138;2023-04-04T06:00:55;101519.34;;;-0.27;100.00
13348;BME280;6743;49.934;9.138;2023-04-04T06:03:21;101534.87;;;-0.24;100.00
13348;BME280;6743;49.934;9.138;2023-04-04T06:05:49;101517.59;;;-0.26;100.00
13348;BME280;6743;49.934;9.138;2023-04-04T06:08:17;101532.88;;;-0.17;100.00
13348;BME280;6743;49.934;9.138;2023-04-04T06:10:43;101525.88;;;-0.17;100.00
13348;BME280;6743;49.934;9.138;2023-04-04T06:13:09;101530.84;;;-0.11;100.00
13348;BME280;6743;49.934;9.138;2023-04-04T06:15:36;101533.19;;;-0.05;100.00
13348;BME280;6743;49.934;9.138;2023-04-04T06:18:02;101530.47;;;-0.02;100.00
13348;BME280;6743;49.934;9.138;2023-04-04T06:20:28;101526.84;;;0.01;100.00
13348;BME280;6743;49.934;9.138;2023-04-04T06:22:53;101526.66;;;0.06;100.00
13348;BME280;6743;49.934;9.138;2023-04-04T06:25:20;101532.41;;;0.14;100.00
13348;BME280;6743;49.934;9.138;2023-04-04T06:27:46;101530.44;;;0.19;100.00
13348;BME280;6743;49.934;9.138;2023-04-04T06:30:12;101536.28;;;0.24;100.00
13348;BME280;6743;49.934;9.138;2023-04-04T06:32:41;101525.63;;;0.28;100.00
13348;BME280;6743;49.934;9.138;2023-04-04T06:35:08;101539.19;;;0.36;100.00
13348;BME280;6743;49.934;9.138;2023-04-04T06:37:34;101532.94;;;0.41;100.00
13348;BME280;6743;49.934;9.138;2023-04-04T06:40:00;101533.41;;;0.49;100.00
13348;BME280;6743;49.934;9.138;2023-04-04T06:42:26;101528.78;;;0.55;100.00
13348;BME280;6743;49.934;9.138;2023-04-04T06:44:52;101531.81;;;0.65;100.00
13348;BME280;6743;49.934;9.138;2023-04-04T06:47:18;101524.59;;;0.70;100.00
13348;BME280;6743;49.934;9.138;2023-04-04T06:49:46;101536.09;;;0.85;100.00
13348;BME280;6743;49.934;9.138;2023-04-04T06:52:12;101533.12;;;0.92;100.00
13348;BME280;6743;49.934;9.138;2023-04-04T06:54:38;101537.09;;;1.01;100.00
13348;BME280;6743;49.934;9.138;2023-04-04T06:57:04;101534.91;;;1.10;100.00
13348;BME280;6743;49.934;9.138;2023-04-04T06:59:30;101537.06;;;1.19;100.00
13348;BME280;6743;49.934;9.138;2023-04-04T07:01:56;101534.84;;;1.29;100.00
13348;BME280;6743;49.934;9.138;2023-04-04T07:04:22;101532.63;;;1.39;100.00
13348;BME280;6743;49.934;9.138;2023-04-04T07:06:49;101532.41;;;1.43;100.00
13348;BME280;6743;49.934;9.138;2023-04-04T07:09:15;101535.50;;;1.51;100.00
13348;BME280;6743;49.934;9.138;2023-04-04T07:11:41;101518.31;;;1.46;100.00
13348;BME280;6743;49.934;9.138;2023-04-04T07:14:07;101540.03;;;1.65;100.00
13348;BME280;6743;49.934;9.138;2023-04-04T07:16:33;101543.19;;;1.72;100.00
13348;BME280;6743;49.934;9.138;2023-04-04T07:19:00;101514.87;;;1.63;100.00
13348;BME280;6743;49.934;9.138;2023-04-04T07:21:26;101550.09;;;1.90;100.00
13348;BME280;6743;49.934;9.138;2023-04-04T07:23:53;101555.09;;;1.94;100.00
13348;BME280;6743;49.934;9.138;2023-04-04T07:26:19;101540.09;;;1.98;100.00
13348;BME280;6743;49.934;9.138;2023-04-04T07:28:45;101548.16;;;2.11;100.00
13348;BME280;6743;49.934;9.138;2023-04-04T07:31:11;101554.00;;;2.16;100.00
13348;BME280;6743;49.934;9.138;2023-04-04T07:33:39;101555.56;;;2.20;100.00
13348;BME280;6743;49.934;9.138;2023-04-04T07:36:05;101551.69;;;2.27;100.00
13348;BME280;6743;49.934;9.138;2023-04-04T07:38:31;101553.13;;;2.32;100.00
13348;BME280;6743;49.934;9.138;2023-04-04T07:40:58;101552.28;;;2.32;100.00
13348;BME280;6743;49.934;9.138;2023-04-04T07:43:24;101558.56;;;2.45;100.00
13348;BME280;6743;49.934;9.138;2023-04-04T07:45:50;101554.09;;;2.47;100.00
13348;BME280;6743;49.934;9.138;2023-04-04T07:48:16;101556.97;;;2.58;100.00
13348;BME280;6743;49.934;9.138;2023-04-04T07:50:42;101554.88;;;2.65;100.00
13348;BME280;6743;49.934;9.138;2023-04-04T07:53:08;101546.69;;;2.71;100.00
13348;BME280;6743;49.934;9.138;2023-04-04T07:55:35;101560.22;;;2.79;100.00
13348;BME280;6743;49.934;9.138;2023-04-04T07:58:01;101552.09;;;2.84;100.00
13348;BME280;6743;49.934;9.138;2023-04-04T08:00:27;101552.72;;;2.89;100.00
13348;BME280;6743;49.934;9.138;2023-04-04T08:02:54;101558.63;;;2.92;100.00
13348;BME280;6743;49.934;9.138;2023-04-04T08:05:20;101536.66;;;2.95;100.00
13348;BME280;6743;49.934;9.138;2023-04-04T08:07:46;101549.16;;;3.05;100.00
13348;BME280;6743;49.934;9.138;2023-04-04T08:10:12;101539.28;;;3.10;100.00
13348;BME280;6743;49.934;9.138;2023-04-04T08:12:41;101546.88;;;3.15;100.00
13348;BME280;6743;49.934;9.138;2023-04-04T08:15:09;101546.44;;;3.23;100.00
13348;BME280;6743;49.934;9.138;2023-04-04T08:17:36;101546.38;;;3.24;98.95
13348;BME280;6743;49.934;9.138;2023-04-04T08:20:02;101545.25;;;3.28;100.00
13348;BME280;6743;49.934;9.138;2023-04-04T08:22:28;101543.03;;;3.36;100.00
13348;BME280;6743;49.934;9.138;2023-04-04T08:24:54;101532.34;;;3.39;100.00
13348;BME280;6743;49.934;9.138;2023-04-04T08:27:21;101538.09;;;3.46;98.69
13348;BME280;6743;49.934;9.138;2023-04-04T08:29:47;101528.22;;;3.51;100.00
13348;BME280;6743;49.934;9.138;2023-04-04T08:32:13;101534.78;;;3.58;100.00
13348;BME280;6743;49.934;9.138;2023-04-04T08:34:39;101538.16;;;3.60;93.63
13348;BME280;6743;49.934;9.138;2023-04-04T08:37:06;101546.19;;;3.73;97.20
13348;BME280;6743;49.934;9.138;2023-04-04T08:39:32;101546.91;;;3.75;94.81
13348;BME280;6743;49.934;9.138;2023-04-04T08:42:01;101535.19;;;3.80;94.76
13348;BME280;6743;49.934;9.138;2023-04-04T08:44:28;101534.28;;;3.81;96.67
13348;BME280;6743;49.934;9.138;2023-04-04T08:46:55;101535.78;;;3.85;93.46
13348;BME280;6743;49.934;9.138;2023-04-04T08:49:25;101532.97;;;3.88;92.84
13348;BME280;6743;49.934;9.138;2023-04-04T08:51:54;101538.13;;;3.90;87.26
13348;BME280;6743;49.934;9.138;2023-04-04T08:54:21;101530.75;;;3.96;94.69
13348;BME280;6743;49.934;9.138;2023-04-04T08:56:49;101527.09;;;3.99;93.43
13348;BME280;6743;49.934;9.138;2023-04-04T08:59:15;101531.78;;;4.08;93.46
13348;BME280;6743;49.934;9.138;2023-04-04T09:01:43;101538.66;;;4.11;92.38
13348;BME280;6743;49.934;9.138;2023-04-04T09:04:09;101531.63;;;4.11;90.16
13348;BME280;6743;49.934;9.138;2023-04-04T09:06:36;101540.34;;;4.12;88.71
13348;BME280;6743;49.934;9.138;2023-04-04T09:09:02;101531.53;;;4.13;93.48
13348;BME280;6743;49.934;9.138;2023-04-04T09:11:30;101526.47;;;4.24;92.69
13348;BME280;6743;49.934;9.138;2023-04-04T09:13:57;101536.59;;;4.30;92.55
13348;BME280;6743;49.934;9.138;2023-04-04T09:16:24;101530.78;;;4.39;92.30
13348;BME280;6743;49.934;9.138;2023-04-04T09:18:51;101533.12;;;4.44;91.90
13348;BME280;6743;49.934;9.138;2023-04-04T09:21:18;101530.41;;;4.45;89.79
13348;BME280;6743;49.934;9.138;2023-04-04T09:23:44;101532.00;;;4.48;91.40
13348;BME280;6743;49.934;9.138;2023-04-04T09:26:11;101533.50;;;4.52;89.38
13348;BME280;6743;49.934;9.138;2023-04-04T09:28:37;101525.53;;;4.53;89.80
13348;BME280;6743;49.934;9.138;2023-04-04T09:31:07;101515.94;;;4.52;88.61
13348;BME280;6743;49.934;9.138;2023-04-04T09:33:34;101518.47;;;4.54;89.96
13348;BME280;6743;49.934;9.138;2023-04-04T09:36:03;101512.19;;;4.56;89.25
13348;BME280;6743;49.934;9.138;2023-04-04T09:38:29;101509.56;;;4.56;87.81
13348;BME280;6743;49.934;9.138;2023-04-04T09:40:56;101512.38;;;4.67;93.25
13348;BME280;6743;49.934;9.138;2023-04-04T09:43:23;101509.53;;;4.70;91.67
13348;BME280;6743;49.934;9.138;2023-04-04T09:45:50;101512.44;;;4.80;90.21
13348;BME280;6743;49.934;9.138;2023-04-04T09:48:24;101513.62;;;4.89;88.56
13348;BME280;6743;49.934;9.138;2023-04-04T09:50:50;101519.75;;;4.89;84.74
13348;BME280;6743;49.934;9.138;2023-04-04T09:53:16;101504.69;;;4.91;88.91
13348;BME280;6743;49.934;9.138;2023-04-04T09:55:48;101513.34;;;4.93;87.63
13348;BME280;6743;49.934;9.138;2023-04-04T09:58:17;101516.06;;;4.92;84.85
13348;BME280;6743;49.934;9.138;2023-04-04T10:00:45;101508.28;;;4.90;85.19
13348;BME280;6743;49.934;9.138;2023-04-04T10:03:14;101511.63;;;4.92;88.31
13348;BME280;6743;49.934;9.138;2023-04-04T10:05:40;101515.13;;;4.93;85.26
13348;BME280;6743;49.934;9.138;2023-04-04T10:08:14;101516.00;;;5.06;88.76
13348;BME280;6743;49.934;9.138;2023-04-04T10:10:45;101511.41;;;5.09;87.95
13348;BME280;6743;49.934;9.138;2023-04-04T10:13:11;101499.84;;;5.12;88.58
13348;BME280;6743;49.934;9.138;2023-04-04T10:15:40;101512.03;;;5.13;86.66
13348;BME280;6743;49.934;9.138;2023-04-04T10:18:09;101506.69;;;5.14;88.16
13348;BME280;6743;49.934;9.138;2023-04-04T10:20:36;101509.31;;;5.14;83.56
13348;BME280;6743;49.934;9.138;2023-04-04T10:23:03;101504.81;;;5.17;84.39
13348;BME280;6743;49.934;9.138;2023-04-04T10:25:30;101512.50;;;5.20;82.19
13348;BME280;6743;49.934;9.138;2023-04-04T10:27:56;101504.41;;;5.23;81.08
13348;BME280;6743;49.934;9.138;2023-04-04T10:30:22;101505.69;;;5.30;82.31
13348;BME280;6743;49.934;9.138;2023-04-04T10:32:55;101506.47;;;5.32;80.65
13348;BME280;6743;49.934;9.138;2023-04-04T10:35:24;101504.53;;;5.34;81.09
13348;BME280;6743;49.934;9.138;2023-04-04T10:37:54;101497.41;;;5.36;77.73
13348;BME280;6743;49.934;9.138;2023-04-04T10:40:25;101493.41;;;5.43;81.26
13348;BME280;6743;49.934;9.138;2023-04-04T10:42:52;101489.84;;;5.44;80.28
13348;BME280;6743;49.934;9.138;2023-04-04T10:45:20;101480.94;;;5.59;86.78
13348;BME280;6743;49.934;9.138;2023-04-04T10:47:46;101486.19;;;5.59;79.28
13348;BME280;6743;49.934;9.138;2023-04-04T10:50:13;101490.81;;;5.68;80.37
13348;BME280;6743;49.934;9.138;2023-04-04T10:52:42;101489.69;;;5.72;82.74
13348;BME280;6743;49.934;9.138;2023-04-04T10:55:12;101493.69;;;5.78;82.08
13348;BME280;6743;49.934;9.138;2023-04-04T10:57:40;101490.84;;;5.81;78.94
13348;BME280;6743;49.934;9.138;2023-04-04T11:00:08;101481.91;;;5.83;80.35
13348;BME280;6743;49.934;9.138;2023-04-04T11:02:42;101486.47;;;5.94;80.15
13348;BME280;6743;49.934;9.138;2023-04-04T11:05:09;101481.72;;;5.99;81.25
13348;BME280;6743;49.934;9.138;2023-04-04T11:07:38;101474.34;;;5.91;78.42
13348;BME280;6743;49.934;9.138;2023-04-04T11:10:12;101479.94;;;6.00;78.51
13348;BME280;6743;49.934;9.138;2023-04-04T11:12:42;101480.78;;;6.00;78.18
13348;BME280;6743;49.934;9.138;2023-04-04T11:15:11;101481.41;;;6.04;78.96
13348;BME280;6743;49.934;9.138;2023-04-04T11:17:56;101478.03;;;6.02;78.33
13348;BME280;6743;49.934;9.138;2023-04-04T11:20:23;101439.75;;;5.83;79.20
13348;BME280;6743;49.934;9.138;2023-04-04T11:23:05;101456.75;;;6.05;78.45
13348;BME280;6743;49.934;9.138;2023-04-04T11:25:32;101449.78;;;6.04;78.33
13348;BME280;6743;49.934;9.138;2023-04-04T11:28:03;101458.78;;;6.01;77.72
13348;BME280;6743;49.934;9.138;2023-04-04T11:30:30;101441.47;;;5.97;76.89
13348;BME280;6743;49.934;9.138;2023-04-04T11:32:57;101445.47;;;6.15;77.60
13348;BME280;6743;49.934;9.138;2023-04-04T11:35:23;101439.78;;;6.21;78.92
13348;BME280;6743;49.934;9.138;2023-04-04T11:37:59;101432.47;;;6.25;80.66
13348;BME280;6743;49.934;9.138;2023-04-04T11:40:38;101434.66;;;6.44;83.78
13348;BME280;6743;49.934;9.138;2023-04-04T11:43:10;101426.31;;;6.50;82.91
13348;BME280;6743;49.934;9.138;2023-04-04T11:45:37;101424.09;;;6.56;82.52
13348;BME280;6743;49.934;9.138;2023-04-04T11:48:08;101415.00;;;6.60;82.14
13348;BME280;6743;49.934;9.138;2023-04-04T11:50:35;101423.94;;;6.58;77.47
13348;BME280;6743;49.934;9.138;2023-04-04T11:53:04;101409.31;;;6.54;77.22
13348;BME280;6743;49.934;9.138;2023-04-04T11:55:30;101416.19;;;6.56;75.62
13348;BME280;6743;49.934;9.138;2023-04-04T11:58:06;101415.84;;;6.61;80.00
13348;BME280;6743;49.934;9.138;2023-04-04T12:00:34;101410.84;;;6.69;82.97
13348;BME280;6743;49.934;9.138;2023-04-04T12:03:03;101423.19;;;6.68;75.54
13348;BME280;6743;49.934;9.138;2023-04-04T12:05:31;101412.53;;;6.70;77.97
13348;BME280;6743;49.934;9.138;2023-04-04T12:07:59;101396.47;;;6.73;80.21
13348;BME280;6743;49.934;9.138;2023-04-04T12:10:28;101396.37;;;6.75;77.34
13348;BME280;6743;49.934;9.138;2023-04-04T12:12:54;101401.75;;;6.73;75.11
13348;BME280;6743;49.934;9.138;2023-04-04T12:15:22;101392.16;;;6.72;76.73
13348;BME280;6743;49.934;9.138;2023-04-04T12:17:48;101396.37;;;6.75;76.54
13348;BME280;6743;49.934;9.138;2023-04-04T12:20:15;101393.37;;;6.79;77.48
13348;BME280;6743;49.934;9.138;2023-04-04T12:22:41;101394.41;;;6.89;75.39
13348;BME280;6743;49.934;9.138;2023-04-04T12:25:08;101389.72;;;6.93;78.95
13348;BME280;6743;49.934;9.138;2023-04-04T12:27:35;101394.16;;;6.92;77.96
13348;BME280;6743;49.934;9.138;2023-04-04T12:30:02;101389.03;;;6.91;74.32
13348;BME280;6743;49.934;9.138;2023-04-04T12:32:30;101382.16;;;6.88;75.69
13348;BME280;6743;49.934;9.138;2023-04-04T12:34:59;101376.81;;;7.01;81.38
13348;BME280;6743;49.934;9.138;2023-04-04T12:37:27;101378.50;;;7.02;76.61
13348;BME280;6743;49.934;9.138;2023-04-04T12:39:55;101363.41;;;7.04;76.78
13348;BME280;6743;49.934;9.138;2023-04-04T12:42:22;101361.16;;;7.22;81.89
13348;BME280;6743;49.934;9.138;2023-04-04T12:44:49;101372.84;;;7.30;74.98
13348;BME280;6743;49.934;9.138;2023-04-04T12:47:16;101375.00;;;7.25;72.01
13348;BME280;6743;49.934;9.138;2023-04-04T12:49:46;101374.25;;;7.23;72.76
13348;BME280;6743;49.934;9.138;2023-04-04T12:52:16;101350.03;;;7.18;75.56
13348;BME280;6743;49.934;9.138;2023-04-04T12:54:44;101365.97;;;7.28;76.87
13348;BME280;6743;49.934;9.138;2023-04-04T12:57:16;101364.91;;;7.30;72.55
13348;BME280;6743;49.934;9.138;2023-04-04T12:59:45;101358.69;;;7.31;76.86
13348;BME280;6743;49.934;9.138;2023-04-04T13:02:13;101357.59;;;7.34;74.34